Airport View

Enter AWOS ICAO identifier for current METAR.

ex. KFNL

KWVL 262256Z AUTO 26005KT 10SM BKN075 03/01 A2953 RMK AO2 RAE19 SLP029 P0000 T00280006

26 Jan 2020 23:48

Frequency: 118.375

Phone: 207-877-0519

Other Area AWOS: KOWK - KAUG - KBST - KIWI

TAF KAUG 261720Z 2618/2718 30005KT P6SM OVC006 FM261830 29007KT P6SM SCT020 FM270200 24003KT P6SM BKN100